Time;durP1;ratioP1;P1;durP2;ratioP2;P2;SDS_P1;SDS_P2;PMS_P1;PMS_P2;Temp;Humidity;BMP_temperature;BMP_pressure;BME280_temperature;BME280_humidity;BME280_pressure;Samples;Min_cycle;Max_cycle;Signal;HPM_P1;HPM_P2
2023/07/22 00:00:46;;;;;;;5.03;4.53;;;20.60;47.00;;;;;;5075054;28;20422;-53
2023/07/22 00:03:12;;;;;;;4.77;4.37;;;20.60;46.90;;;;;;5075202;28;20218;-52
2023/07/22 00:05:39;;;;;;;4.90;4.13;;;20.60;47.10;;;;;;5075322;28;20399;-52
2023/07/22 00:08:05;;;;;;;4.60;4.10;;;20.60;47.10;;;;;;5075364;28;20168;-52
2023/07/22 00:10:31;;;;;;;4.73;4.27;;;20.60;47.10;;;;;;5074693;28;20564;-55
2023/07/22 00:12:57;;;;;;;6.53;4.97;;;20.60;47.00;;;;;;5075008;28;20578;-52
2023/07/22 00:15:23;;;;;;;5.10;4.60;;;20.50;47.10;;;;;;5075216;28;20176;-52
2023/07/22 00:17:50;;;;;;;6.47;5.23;;;20.50;47.20;;;;;;5075192;28;20203;-53
2023/07/22 00:20:16;;;;;;;11.00;4.83;;;20.40;47.20;;;;;;5074598;28;20480;-54
2023/07/22 00:22:43;;;;;;;5.93;4.40;;;20.50;47.40;;;;;;5075071;28;20438;-54
2023/07/22 00:25:10;;;;;;;5.90;4.20;;;20.50;47.20;;;;;;5075042;28;20456;-54
2023/07/22 00:27:40;;;;;;;6.20;4.17;;;20.50;47.20;;;;;;5074757;28;20263;-51
2023/07/22 00:30:07;;;;;;;5.20;4.63;;;20.40;47.20;;;;;;5074325;28;20554;-54
2023/07/22 00:32:33;;;;;;;4.13;3.50;;;20.50;47.30;;;;;;5074746;28;20411;-52
2023/07/22 00:34:59;;;;;;;5.60;3.80;;;20.50;47.30;;;;;;5074584;28;20407;-51
2023/07/22 00:37:25;;;;;;;6.60;4.23;;;20.50;47.30;;;;;;5074631;28;20175;-54
2023/07/22 00:39:51;;;;;;;6.13;4.10;;;20.50;47.50;;;;;;5074268;28;20442;-51
2023/07/22 00:42:17;;;;;;;5.20;4.43;;;20.50;47.40;;;;;;5074951;28;20510;-52
2023/07/22 00:44:43;;;;;;;5.40;4.80;;;20.50;47.50;;;;;;5074431;28;20970;-52
2023/07/22 00:47:09;;;;;;;6.27;3.77;;;20.50;47.40;;;;;;5074344;28;20172;-52
2023/07/22 00:49:36;;;;;;;5.60;3.80;;;20.50;47.40;;;;;;5074046;28;20200;-55
2023/07/22 00:52:02;;;;;;;4.80;3.83;;;20.50;47.60;;;;;;5074294;28;20407;-54
2023/07/22 00:54:29;;;;;;;7.30;3.83;;;20.50;47.30;;;;;;5074240;28;20438;-52
2023/07/22 00:56:57;;;;;;;5.27;4.37;;;20.50;47.20;;;;;;5074314;28;20883;-54
2023/07/22 00:59:23;;;;;;;9.40;4.17;;;20.50;47.10;;;;;;5074071;28;21313;-54
2023/07/22 01:01:48;;;;;;;5.90;4.73;;;20.50;47.00;;;;;;5073983;28;20427;-52
2023/07/22 01:04:16;;;;;;;5.53;4.83;;;20.40;46.80;;;;;;5074314;28;20425;-52
2023/07/22 01:06:44;;;;;;;4.60;3.60;;;20.40;46.90;;;;;;5073849;28;20208;-54
2023/07/22 01:09:10;;;;;;;5.93;4.27;;;20.40;47.00;;;;;;5073958;28;20450;-52
2023/07/22 01:11:36;;;;;;;8.83;4.47;;;20.40;47.00;;;;;;5073934;28;20427;-62
2023/07/22 01:14:03;;;;;;;7.40;5.07;;;20.30;46.90;;;;;;5073763;28;20691;-52
2023/07/22 01:16:29;;;;;;;7.90;4.40;;;20.30;47.10;;;;;;5073782;28;20409;-52
2023/07/22 01:18:56;;;;;;;6.00;4.33;;;20.40;47.10;;;;;;5073848;28;20434;-53
2023/07/22 01:21:26;;;;;;;6.77;5.00;;;20.40;47.10;;;;;;5073523;28;20441;-51
2023/07/22 01:23:53;;;;;;;6.83;4.10;;;20.40;46.90;;;;;;5072783;28;20806;-52
2023/07/22 01:26:19;;;;;;;9.70;4.93;;;20.40;46.80;;;;;;5073673;28;20407;-54
2023/07/22 01:28:45;;;;;;;4.90;4.20;;;20.40;46.80;;;;;;5073615;28;20630;-52
2023/07/22 01:31:11;;;;;;;6.13;4.20;;;20.40;47.00;;;;;;5073325;28;20430;-52
2023/07/22 01:33:37;;;;;;;7.68;4.85;;;20.40;47.10;;;;;;5073526;28;20968;-54
2023/07/22 01:36:04;;;;;;;7.23;4.37;;;20.40;46.90;;;;;;5073489;28;20173;-52
2023/07/22 01:38:31;;;;;;;6.63;4.90;;;20.30;47.00;;;;;;5073461;28;20415;-52
2023/07/22 01:40:57;;;;;;;6.83;4.30;;;20.40;47.10;;;;;;5073066;28;20465;-53
2023/07/22 01:43:23;;;;;;;7.10;4.20;;;20.30;47.00;;;;;;5073324;28;20402;-52
2023/07/22 01:45:48;;;;;;;9.30;4.23;;;20.30;46.90;;;;;;5073211;28;20399;-52
2023/07/22 01:48:14;;;;;;;12.20;5.07;;;20.30;47.00;;;;;;5073377;28;20452;-53
2023/07/22 01:50:40;;;;;;;5.50;4.20;;;20.30;47.10;;;;;;5072943;28;20181;-52
2023/07/22 01:53:06;;;;;;;9.17;4.50;;;20.40;47.20;;;;;;5073113;28;20687;-54
2023/07/22 01:55:32;;;;;;;6.23;4.10;;;20.40;46.90;;;;;;5073027;28;20165;-54
2023/07/22 01:57:58;;;;;;;7.50;4.33;;;20.30;46.80;;;;;;5072968;28;20267;-52
2023/07/22 02:00:24;;;;;;;8.10;5.37;;;20.30;46.80;;;;;;5072629;28;20926;-51
2023/07/22 02:02:50;;;;;;;10.23;4.40;;;20.30;46.70;;;;;;5072943;28;20399;-53
2023/07/22 02:05:16;;;;;;;13.00;5.20;;;20.30;46.90;;;;;;5072906;28;20822;-52
2023/07/22 02:07:42;;;;;;;6.23;4.40;;;20.30;47.00;;;;;;5073158;28;20702;-50
2023/07/22 02:10:09;;;;;;;8.77;5.30;;;20.30;46.80;;;;;;5072370;28;20482;-51
2023/07/22 02:12:35;;;;;;;7.45;5.18;;;20.30;46.90;;;;;;5072753;28;20407;-51
2023/07/22 02:15:02;;;;;;;11.80;5.47;;;20.30;46.90;;;;;;5072669;28;20238;-52
2023/07/22 02:17:30;;;;;;;8.60;4.50;;;20.30;46.70;;;;;;5072104;28;20929;-53
2023/07/22 02:19:56;;;;;;;7.00;5.17;;;20.30;46.50;;;;;;5072438;28;20200;-51
2023/07/22 02:22:22;;;;;;;8.00;5.93;;;20.20;46.50;;;;;;5072634;28;20415;-53
2023/07/22 02:24:48;;;;;;;9.40;5.57;;;20.20;46.50;;;;;;5072569;28;20423;-53
2023/07/22 02:27:14;;;;;;;7.83;5.50;;;20.20;46.50;;;;;;5072735;28;20460;-53
2023/07/22 02:29:40;;;;;;;7.97;5.50;;;20.20;46.60;;;;;;5072099;28;20208;-52
2023/07/22 02:32:06;;;;;;;13.27;5.40;;;20.20;46.70;;;;;;5072689;28;20490;-53
2023/07/22 02:34:32;;;;;;;7.18;5.38;;;20.10;46.70;;;;;;5072606;28;20439;-53
2023/07/22 02:36:58;;;;;;;9.57;6.03;;;20.20;46.70;;;;;;5072343;28;20189;-53
2023/07/22 02:39:24;;;;;;;9.83;4.97;;;20.20;46.80;;;;;;5072297;28;20501;-53
2023/07/22 02:41:49;;;;;;;8.73;4.50;;;20.10;46.80;;;;;;5072171;28;20189;-53
2023/07/22 02:44:15;;;;;;;8.10;5.30;;;20.20;46.50;;;;;;5072335;28;20419;-54
2023/07/22 02:46:41;;;;;;;10.20;5.50;;;20.10;46.50;;;;;;5072311;28;20172;-53
2023/07/22 02:49:07;;;;;;;6.57;5.33;;;20.20;46.70;;;;;;5072017;28;20203;-56
2023/07/22 02:51:33;;;;;;;7.97;5.13;;;20.10;47.30;;;;;;5072091;28;20196;-55
2023/07/22 02:53:59;;;;;;;8.43;5.10;;;20.10;46.70;;;;;;5072125;28;20407;-51
2023/07/22 02:56:25;;;;;;;11.73;5.20;;;20.00;46.60;;;;;;5072056;28;20164;-51
2023/07/22 02:58:50;;;;;;;8.53;4.90;;;20.00;46.70;;;;;;5072086;28;20490;-53
2023/07/22 03:01:16;;;;;;;10.63;5.13;;;20.00;46.80;;;;;;5071832;28;20203;-51
2023/07/22 03:03:42;;;;;;;11.13;4.70;;;20.00;47.60;;;;;;5072030;28;20177;-51
2023/07/22 03:06:09;;;;;;;11.90;5.90;;;20.00;47.10;;;;;;5072006;28;20183;-54
2023/07/22 03:08:35;;;;;;;7.57;4.90;;;20.00;47.20;;;;;;5072031;28;20576;-53
2023/07/22 03:11:01;;;;;;;12.07;5.78;;;20.00;47.00;;;;;;5071607;28;20279;-53
2023/07/22 03:13:29;;;;;;;19.87;6.50;;;20.00;46.90;;;;;;5072083;28;20255;-53
2023/07/22 03:15:55;;;;;;;10.70;5.43;;;20.00;46.90;;;;;;5072111;28;20407;-52
2023/07/22 03:18:21;;;;;;;7.53;5.40;;;20.00;46.90;;;;;;5071881;28;20172;-52
2023/07/22 03:20:47;;;;;;;6.00;5.23;;;19.90;46.90;;;;;;5071691;28;20181;-53
2023/07/22 03:23:13;;;;;;;8.10;5.40;;;19.90;47.00;;;;;;5071942;28;20399;-51
2023/07/22 03:25:39;;;;;;;8.53;5.37;;;19.90;47.20;;;;;;5071711;28;20176;-53
2023/07/22 03:28:06;;;;;;;15.17;5.63;;;19.90;47.20;;;;;;5072910;28;20436;-55
2023/07/22 03:30:33;;;;;;;7.53;5.13;;;19.90;47.10;;;;;;5075693;28;20208;-52
2023/07/22 03:33:00;;;;;;;7.35;6.25;;;19.80;47.30;;;;;;5075817;28;20410;-52
2023/07/22 03:35:26;;;;;;;7.18;5.57;;;19.80;47.10;;;;;;5075938;28;20181;-54
2023/07/22 03:37:52;;;;;;;16.67;6.93;;;19.70;47.30;;;;;;5075675;28;20537;-52
2023/07/22 03:40:22;;;;;;;7.90;6.13;;;19.80;47.30;;;;;;5075322;28;20334;-53
2023/07/22 03:42:49;;;;;;;6.13;5.53;;;19.80;47.20;;;;;;5075649;28;20187;-52
2023/07/22 03:45:15;;;;;;;10.23;5.07;;;19.70;47.20;;;;;;5075920;28;20180;-52
2023/07/22 03:47:43;;;;;;;9.40;7.10;;;19.70;47.20;;;;;;5075560;28;20229;-55
2023/07/22 03:50:09;;;;;;;7.15;5.55;;;19.70;47.10;;;;;;5075436;28;20212;-54
2023/07/22 03:52:35;;;;;;;9.17;6.07;;;19.70;47.40;;;;;;5075493;28;20187;-51
2023/07/22 03:55:01;;;;;;;9.70;6.50;;;19.70;47.40;;;;;;5075301;28;20409;-55
2023/07/22 03:57:28;;;;;;;12.10;6.93;;;19.70;47.40;;;;;;5075343;28;20409;-53
2023/07/22 03:59:55;;;;;;;7.57;6.40;;;19.70;47.20;;;;;;5075027;28;20196;-52
2023/07/22 04:02:21;;;;;;;7.57;6.82;;;19.70;47.40;;;;;;5075286;28;20169;-54
2023/07/22 04:04:47;;;;;;;11.93;7.18;;;19.70;47.70;;;;;;5075460;28;20180;-54
2023/07/22 04:07:13;;;;;;;9.07;6.40;;;19.70;47.90;;;;;;5075070;28;20638;-52
2023/07/22 04:09:38;;;;;;;8.23;6.35;;;19.70;47.90;;;;;;5074785;28;20273;-52
2023/07/22 04:12:05;;;;;;;6.90;5.60;;;19.80;47.90;;;;;;5075022;28;20177;-52
2023/07/22 04:14:31;;;;;;;10.48;6.00;;;19.80;47.90;;;;;;5074982;28;20446;-53
2023/07/22 04:16:57;;;;;;;7.27;6.00;;;19.80;48.00;;;;;;5074939;28;20648;-52
2023/07/22 04:19:23;;;;;;;7.63;6.22;;;19.90;47.80;;;;;;5074849;28;20180;-52
2023/07/22 04:21:48;;;;;;;9.80;6.00;;;19.90;48.00;;;;;;5074789;28;20564;-55
2023/07/22 04:24:14;;;;;;;7.90;6.47;;;19.90;48.00;;;;;;5074899;28;20202;-54
2023/07/22 04:26:45;;;;;;;10.10;6.60;;;19.90;47.70;;;;;;5075040;28;20177;-52
2023/07/22 04:29:12;;;;;;;9.93;6.75;;;19.90;47.50;;;;;;5074605;28;20205;-51
2023/07/22 04:31:37;;;;;;;9.32;6.45;;;20.00;47.50;;;;;;5074841;28;20200;-54
2023/07/22 04:34:05;;;;;;;13.07;6.77;;;20.00;47.30;;;;;;5074725;28;20526;-52
2023/07/22 04:36:31;;;;;;;8.30;7.40;;;20.00;47.10;;;;;;5074888;28;20406;-52
2023/07/22 04:38:57;;;;;;;11.23;7.43;;;20.10;47.30;;;;;;5074580;28;20179;-54
2023/07/22 04:41:22;;;;;;;12.30;6.53;;;20.10;47.50;;;;;;5073979;28;20196;-54
2023/07/22 04:43:50;;;;;;;12.30;6.57;;;20.20;47.40;;;;;;5074792;28;20974;-51
2023/07/22 04:46:16;;;;;;;9.32;5.80;;;20.30;47.30;;;;;;5074542;28;20180;-54
2023/07/22 04:48:42;;;;;;;8.40;5.68;;;20.30;47.50;;;;;;5074379;28;20235;-51
2023/07/22 04:51:08;;;;;;;10.33;6.17;;;20.40;47.50;;;;;;5074147;28;20779;-53
2023/07/22 04:53:34;;;;;;;8.77;5.77;;;20.40;47.60;;;;;;5074408;28;20478;-50
2023/07/22 04:56:00;;;;;;;9.60;6.17;;;20.50;47.20;;;;;;5074410;28;20883;-50
2023/07/22 04:58:25;;;;;;;9.13;5.97;;;20.50;47.30;;;;;;5074535;28;20172;-55
2023/07/22 05:00:51;;;;;;;9.67;5.87;;;20.60;47.00;;;;;;5074042;28;20959;-52
2023/07/22 05:03:18;;;;;;;7.47;5.60;;;20.70;46.80;;;;;;5074305;28;20399;-52
2023/07/22 05:05:44;;;;;;;9.27;5.83;;;20.70;46.90;;;;;;5074135;28;20399;-53
2023/07/22 05:08:10;;;;;;;6.37;5.70;;;20.80;46.70;;;;;;5074355;28;20760;-54
2023/07/22 05:10:39;;;;;;;10.03;6.77;;;20.90;46.60;;;;;;5073946;28;20463;-52
2023/07/22 05:13:05;;;;;;;8.20;6.53;;;20.90;46.30;;;;;;5073976;28;20426;-55
2023/07/22 05:15:31;;;;;;;13.67;6.53;;;20.90;46.40;;;;;;5074161;28;20559;-52
2023/07/22 05:17:57;;;;;;;11.00;6.20;;;20.90;46.30;;;;;;5074194;28;20756;-52
2023/07/22 05:20:23;;;;;;;7.10;6.40;;;21.00;46.50;;;;;;5074091;28;20195;-53
2023/07/22 05:22:49;;;;;;;12.93;6.87;;;21.00;46.80;;;;;;5074016;28;20180;-54
2023/07/22 05:25:15;;;;;;;9.17;5.50;;;21.10;46.70;;;;;;5073696;28;20179;-52
2023/07/22 05:27:41;;;;;;;9.40;6.03;;;21.10;46.30;;;;;;5073709;28;20403;-51
2023/07/22 05:30:08;;;;;;;8.90;6.10;;;21.20;45.70;;;;;;5073189;28;20469;-53
2023/07/22 05:32:33;;;;;;;9.57;5.60;;;21.20;45.90;;;;;;5073611;28;20411;-54
2023/07/22 05:34:59;;;;;;;11.70;5.53;;;21.30;46.30;;;;;;5073420;28;20459;-52
2023/07/22 05:37:25;;;;;;;12.97;7.07;;;21.30;46.40;;;;;;5073450;28;20714;-52
2023/07/22 05:39:51;;;;;;;9.90;5.60;;;21.40;46.40;;;;;;5073463;28;20513;-54
2023/07/22 05:42:18;;;;;;;7.53;6.83;;;21.40;46.30;;;;;;5073435;28;20172;-53
2023/07/22 05:44:44;;;;;;;9.63;6.93;;;21.50;45.40;;;;;;5073194;28;20911;-51
2023/07/22 05:47:09;;;;;;;6.27;5.03;;;21.60;45.60;;;;;;5073243;28;20453;-53
2023/07/22 05:49:35;;;;;;;13.93;6.00;;;21.60;46.00;;;;;;5072863;28;21075;-51
2023/07/22 05:52:01;;;;;;;7.07;5.40;;;21.70;45.30;;;;;;5072405;28;20175;-52
2023/07/22 05:54:27;;;;;;;8.50;5.53;;;21.70;45.50;;;;;;5073420;28;20218;-54
2023/07/22 05:56:53;;;;;;;7.30;5.87;;;21.80;45.30;;;;;;5073109;28;20403;-51
2023/07/22 05:59:18;;;;;;;6.60;5.90;;;21.90;45.40;;;;;;5071577;28;20173;-54
2023/07/22 06:01:44;;;;;;;6.10;5.50;;;21.90;45.00;;;;;;5072799;28;20561;-54
2023/07/22 06:04:10;;;;;;;10.13;6.57;;;22.00;44.50;;;;;;5072935;28;20183;-51
2023/07/22 06:06:36;;;;;;;7.80;6.30;;;22.00;43.90;;;;;;5071793;28;20545;-52
2023/07/22 06:09:02;;;;;;;9.90;5.83;;;22.00;44.10;;;;;;5073083;28;20523;-54
2023/07/22 06:11:28;;;;;;;10.00;6.83;;;22.00;44.00;;;;;;5072662;28;20418;-54
2023/07/22 06:13:54;;;;;;;7.60;6.30;;;22.10;44.30;;;;;;5072620;28;20455;-51
2023/07/22 06:16:20;;;;;;;6.53;5.70;;;22.10;43.80;;;;;;5072612;28;20964;-54
2023/07/22 06:18:46;;;;;;;9.43;6.57;;;22.20;44.10;;;;;;5072690;28;20411;-52
2023/07/22 06:21:12;;;;;;;9.10;6.27;;;22.20;43.50;;;;;;5072387;28;20422;-51
2023/07/22 06:23:38;;;;;;;7.57;6.10;;;22.20;44.00;;;;;;5072911;28;20763;-55
2023/07/22 06:26:03;;;;;;;7.83;7.03;;;22.20;43.00;;;;;;5072826;28;20254;-51
2023/07/22 06:28:29;;;;;;;7.57;6.40;;;22.20;42.40;;;;;;5072410;28;20513;-51
2023/07/22 06:30:55;;;;;;;8.90;6.70;;;22.20;43.10;;;;;;5072401;28;20193;-54
2023/07/22 06:33:21;;;;;;;10.60;7.00;;;22.20;43.00;;;;;;5072534;28;20203;-51
2023/07/22 06:35:47;;;;;;;8.57;7.03;;;22.30;42.80;;;;;;5072706;28;20251;-55
2023/07/22 06:38:13;;;;;;;7.40;6.00;;;22.30;43.30;;;;;;5072343;28;20891;-51
2023/07/22 06:40:39;;;;;;;7.70;6.60;;;22.40;42.50;;;;;;5071980;28;20211;-50
2023/07/22 06:43:05;;;;;;;8.33;5.90;;;22.50;42.40;;;;;;5072327;28;20399;-53
2023/07/22 06:45:32;;;;;;;9.07;6.33;;;22.50;42.10;;;;;;5072200;28;20188;-55
2023/07/22 06:47:59;;;;;;;7.27;6.37;;;22.60;40.70;;;;;;5072275;28;20468;-53
2023/07/22 06:50:25;;;;;;;10.73;7.63;;;22.60;39.90;;;;;;5071986;28;20463;-56
2023/07/22 06:52:50;;;;;;;8.27;6.03;;;22.50;40.00;;;;;;5072331;28;20399;-52
2023/07/22 06:55:16;;;;;;;8.00;6.57;;;22.60;40.10;;;;;;5070822;28;20923;-51
2023/07/22 06:57:42;;;;;;;10.00;6.47;;;22.60;40.00;;;;;;5072097;28;20164;-56
2023/07/22 07:00:09;;;;;;;9.10;6.47;;;22.60;41.20;;;;;;5071760;28;20488;-54
2023/07/22 07:02:36;;;;;;;8.67;6.80;;;22.70;40.60;;;;;;5072016;28;20179;-52
2023/07/22 07:05:02;;;;;;;9.40;6.33;;;22.80;40.80;;;;;;5072206;28;20460;-52
2023/07/22 07:07:28;;;;;;;8.43;7.43;;;22.90;40.10;;;;;;5072021;28;20498;-54
2023/07/22 07:09:54;;;;;;;7.73;6.80;;;22.90;39.80;;;;;;5071675;28;20545;-52
2023/07/22 07:12:20;;;;;;;6.90;6.20;;;23.00;39.30;;;;;;5072269;28;20219;-51
2023/07/22 07:14:46;;;;;;;9.30;5.97;;;23.10;39.60;;;;;;5070573;28;20836;-54
2023/07/22 07:17:11;;;;;;;9.00;5.70;;;23.20;39.10;;;;;;5071979;28;20179;-53
2023/07/22 07:19:37;;;;;;;8.33;6.33;;;23.20;39.20;;;;;;5071899;28;20529;-52
2023/07/22 07:22:03;;;;;;;7.00;6.30;;;23.30;39.20;;;;;;5072070;28;20325;-51
2023/07/22 07:24:29;;;;;;;10.97;6.40;;;23.40;39.10;;;;;;5071849;28;20172;-54
2023/07/22 07:26:55;;;;;;;8.40;7.10;;;23.40;39.30;;;;;;5072110;28;20471;-54
2023/07/22 07:29:20;;;;;;;10.13;5.70;;;23.50;38.80;;;;;;5071408;28;20669;-52
2023/07/22 07:31:46;;;;;;;7.73;6.00;;;23.60;37.40;;;;;;5071701;28;20192;-51
2023/07/22 07:34:12;;;;;;;7.03;5.83;;;23.60;38.10;;;;;;5071783;28;20165;-53
2023/07/22 07:36:38;;;;;;;7.23;5.30;;;23.60;37.00;;;;;;5071877;28;20176;-51
2023/07/22 07:39:04;;;;;;;8.70;6.33;;;23.50;36.40;;;;;;5071550;28;20579;-50
2023/07/22 07:41:29;;;;;;;7.33;6.40;;;23.50;36.30;;;;;;5071545;28;20192;-54
2023/07/22 07:43:55;;;;;;;8.30;5.73;;;23.60;37.40;;;;;;5071936;28;20201;-54
2023/07/22 07:46:23;;;;;;;9.20;6.03;;;23.60;37.30;;;;;;5071941;28;20684;-52
2023/07/22 07:48:51;;;;;;;7.97;6.20;;;23.80;36.10;;;;;;5071493;28;20200;-54
2023/07/22 07:51:18;;;;;;;8.00;5.50;;;23.80;35.30;;;;;;5071351;28;20965;-54
2023/07/22 07:53:46;;;;;;;7.07;6.37;;;23.80;35.30;;;;;;5071658;28;20832;-52
2023/07/22 07:56:13;;;;;;;10.40;6.30;;;23.90;36.00;;;;;;5071460;28;20407;-55
2023/07/22 07:58:39;;;;;;;7.37;5.47;;;24.00;35.60;;;;;;5071406;28;20468;-52
2023/07/22 08:01:06;;;;;;;7.57;6.50;;;24.10;34.30;;;;;;5071432;28;20427;-52
2023/07/22 08:03:33;;;;;;;6.40;5.80;;;24.10;33.70;;;;;;5071712;28;20491;-54
2023/07/22 08:05:59;;;;;;;7.00;5.50;;;24.10;34.00;;;;;;5071483;28;20410;-54
2023/07/22 08:08:25;;;;;;;7.10;5.57;;;24.10;34.70;;;;;;5071466;28;20411;-51
2023/07/22 08:11:10;;;;;;;10.43;5.37;;;24.20;35.00;;;;;;5071095;28;20204;-54
2023/07/22 08:13:37;;;;;;;8.27;5.60;;;24.30;33.40;;;;;;5071437;28;20188;-55
2023/07/22 08:16:05;;;;;;;7.10;6.03;;;24.20;34.30;;;;;;5073823;28;20468;-52
2023/07/22 08:18:32;;;;;;;5.87;5.23;;;24.20;34.30;;;;;;5075113;28;20407;-51
2023/07/22 08:20:58;;;;;;;7.77;5.20;;;24.20;33.70;;;;;;5074693;28;21125;-52
2023/07/22 08:23:24;;;;;;;7.77;6.17;;;24.30;33.70;;;;;;5074969;28;20418;-54
2023/07/22 08:25:50;;;;;;;8.10;6.23;;;24.30;33.30;;;;;;5074788;28;20407;-51
2023/07/22 08:28:16;;;;;;;6.40;5.10;;;24.50;34.60;;;;;;5074850;28;20486;-51
2023/07/22 08:30:43;;;;;;;6.60;5.00;;;24.60;33.80;;;;;;5074532;28;20869;-53
2023/07/22 08:33:11;;;;;;;14.97;4.90;;;24.70;33.10;;;;;;5075075;28;20421;-53
2023/07/22 08:35:38;;;;;;;11.40;7.17;;;24.80;32.50;;;;;;5074740;28;20409;-51
2023/07/22 08:38:04;;;;;;;6.00;5.27;;;24.90;33.20;;;;;;5074650;28;20403;-51
2023/07/22 08:40:40;;;;;;;7.10;4.77;;;24.90;31.40;;;;;;5074235;28;20442;-54
2023/07/22 08:43:08;;;;;;;7.00;5.90;;;24.90;32.70;;;;;;5074710;28;20493;-54
2023/07/22 08:45:36;;;;;;;8.07;5.50;;;25.00;33.40;;;;;;5074581;28;20419;-54
2023/07/22 08:48:09;;;;;;;7.30;6.47;;;25.10;31.60;;;;;;5074488;28;20472;-52
2023/07/22 08:50:44;;;;;;;7.03;4.10;;;25.20;31.30;;;;;;5074028;28;20476;-52
2023/07/22 08:53:13;;;;;;;5.20;4.30;;;25.20;30.80;;;;;;5074645;28;20435;-51
2023/07/22 08:55:42;;;;;;;6.33;5.10;;;25.30;31.30;;;;;;5074295;28;20419;-53
2023/07/22 08:58:11;;;;;;;6.97;4.40;;;25.30;30.40;;;;;;5074618;28;20439;-51
2023/07/22 09:00:39;;;;;;;6.50;5.30;;;25.40;30.70;;;;;;5073977;28;20446;-51
2023/07/22 09:03:05;;;;;;;8.80;5.33;;;25.40;29.50;;;;;;5074060;28;20418;-53
2023/07/22 09:05:34;;;;;;;6.20;4.30;;;25.50;30.90;;;;;;5074120;28;20411;-53
2023/07/22 09:08:06;;;;;;;6.37;4.60;;;25.60;29.90;;;;;;5074135;28;20494;-52
2023/07/22 09:10:32;;;;;;;8.10;4.53;;;25.70;30.30;;;;;;5073639;28;20549;-54
2023/07/22 09:13:00;;;;;;;10.13;4.70;;;25.80;28.20;;;;;;5074026;28;20427;-51
2023/07/22 09:15:27;;;;;;;8.40;5.83;;;25.80;29.00;;;;;;5073952;28;20406;-54
2023/07/22 09:17:53;;;;;;;6.90;4.27;;;25.70;28.70;;;;;;5073851;28;20438;-52
2023/07/22 09:20:20;;;;;;;4.50;3.77;;;25.60;28.10;;;;;;5073721;28;20467;-55
2023/07/22 09:22:47;;;;;;;5.33;4.43;;;25.50;28.50;;;;;;5073791;28;20505;-54
2023/07/22 09:25:17;;;;;;;6.50;4.53;;;25.50;28.70;;;;;;5073841;28;20507;-54
2023/07/22 09:27:47;;;;;;;5.50;4.40;;;25.60;28.50;;;;;;5073696;28;20853;-52
2023/07/22 09:30:27;;;;;;;6.97;4.93;;;25.60;29.60;;;;;;5073488;28;20466;-51
2023/07/22 09:32:56;;;;;;;7.27;4.27;;;25.50;29.30;;;;;;5072418;28;20425;-51
2023/07/22 09:35:22;;;;;;;6.83;3.73;;;25.50;27.80;;;;;;5073553;28;20399;-51
2023/07/22 09:37:48;;;;;;;5.37;4.30;;;25.40;28.20;;;;;;5073548;28;20892;-53
2023/07/22 09:40:25;;;;;;;7.93;4.90;;;25.40;27.70;;;;;;5073225;28;20483;-54
2023/07/22 09:42:56;;;;;;;6.10;5.10;;;25.50;30.30;;;;;;5073369;28;20449;-54
2023/07/22 09:45:24;;;;;;;4.40;3.57;;;25.40;28.40;;;;;;5073406;28;20406;-52
2023/07/22 09:47:52;;;;;;;4.33;3.70;;;25.50;28.90;;;;;;5073272;28;20415;-52
2023/07/22 09:50:19;;;;;;;5.47;3.97;;;25.50;28.90;;;;;;5072888;28;20459;-52
2023/07/22 09:52:49;;;;;;;5.07;4.03;;;25.70;28.50;;;;;;5073355;28;20411;-54
2023/07/22 09:55:17;;;;;;;4.87;4.37;;;25.90;29.10;;;;;;5073299;28;20414;-51
2023/07/22 09:57:45;;;;;;;11.60;4.17;;;26.00;28.90;;;;;;5073200;28;20399;-52
2023/07/22 10:00:14;;;;;;;4.97;3.80;;;26.00;29.60;;;;;;5072792;28;20427;-54
2023/07/22 10:02:45;;;;;;;5.10;4.10;;;26.10;28.90;;;;;;5073264;28;20541;-52
2023/07/22 10:05:14;;;;;;;5.40;4.03;;;26.20;28.70;;;;;;5073289;28;20387;-52
2023/07/22 10:07:47;;;;;;;4.43;3.17;;;26.40;28.00;;;;;;5072841;28;20402;-54
2023/07/22 10:10:16;;;;;;;5.63;3.63;;;26.50;28.60;;;;;;5072630;28;20791;-51
2023/07/22 10:12:42;;;;;;;6.87;3.63;;;26.70;28.40;;;;;;5072765;28;20403;-53
2023/07/22 10:15:10;;;;;;;4.23;3.20;;;26.90;27.60;;;;;;5072768;28;20398;-54
2023/07/22 10:17:36;;;;;;;3.70;3.33;;;27.00;26.90;;;;;;5072746;28;20413;-50
2023/07/22 10:20:07;;;;;;;5.40;3.73;;;27.20;28.70;;;;;;5072444;28;20492;-51
2023/07/22 10:22:36;;;;;;;4.97;4.10;;;27.30;27.60;;;;;;5072576;28;20423;-55
2023/07/22 10:25:05;;;;;;;4.70;3.57;;;27.50;26.70;;;;;;5072598;28;20418;-51
2023/07/22 10:27:32;;;;;;;6.57;3.10;;;27.50;26.00;;;;;;5072720;28;20411;-51
2023/07/22 10:30:00;;;;;;;5.90;4.03;;;27.60;27.80;;;;;;5072093;28;20463;-54
2023/07/22 10:32:42;;;;;;;4.57;3.70;;;27.70;26.90;;;;;;5072541;28;20415;-51
2023/07/22 10:35:12;;;;;;;5.53;3.63;;;27.70;25.50;;;;;;5072400;28;21072;-54
2023/07/22 10:37:41;;;;;;;4.77;3.87;;;27.70;25.30;;;;;;5071980;28;20398;-53
2023/07/22 10:40:26;;;;;;;4.90;3.70;;;27.80;24.30;;;;;;5072009;28;20466;-51
2023/07/22 10:42:54;;;;;;;6.23;4.27;;;27.70;26.50;;;;;;5072257;28;20401;-53
2023/07/22 10:45:51;;;;;;;4.40;3.70;;;27.50;25.80;;;;;;5072433;28;20410;-54
2023/07/22 10:48:20;;;;;;;4.70;3.27;;;27.50;26.70;;;;;;5071742;28;20513;-54
2023/07/22 10:50:48;;;;;;;4.27;3.87;;;27.50;26.90;;;;;;5071932;28;20512;-53
2023/07/22 10:53:26;;;;;;;4.40;3.50;;;27.60;26.00;;;;;;5072105;28;20411;-52
2023/07/22 10:56:13;;;;;;;5.10;3.43;;;27.80;26.70;;;;;;5072208;28;20410;-54
2023/07/22 10:58:45;;;;;;;6.93;3.77;;;28.00;25.50;;;;;;5072470;28;20466;-54
2023/07/22 11:01:28;;;;;;;7.90;3.90;;;28.10;24.60;;;;;;5071293;28;20453;-51
2023/07/22 11:04:13;;;;;;;4.70;4.20;;;28.20;23.90;;;;;;5071887;28;20759;-53
2023/07/22 11:06:55;;;;;;;4.20;3.37;;;28.20;25.50;;;;;;5072202;28;20395;-52
2023/07/22 11:09:43;;;;;;;11.57;3.70;;;28.20;23.30;;;;;;5071778;28;20453;-54
2023/07/22 11:12:17;;;;;;;6.67;4.13;;;28.10;25.20;;;;;;5071879;28;20415;-54
2023/07/22 11:14:51;;;;;;;5.73;3.50;;;28.10;23.40;;;;;;5071899;28;20434;-51
2023/07/22 11:17:18;;;;;;;4.10;3.70;;;28.00;24.30;;;;;;5071969;28;20437;-55
2023/07/22 11:19:45;;;;;;;4.47;3.67;;;28.00;24.50;;;;;;5071617;28;20409;-55
2023/07/22 11:22:11;;;;;;;8.30;4.73;;;27.90;23.50;;;;;;5072068;28;20417;-53
2023/07/22 11:24:37;;;;;;;5.00;3.80;;;27.80;24.60;;;;;;5071814;28;20425;-52
2023/07/22 11:27:11;;;;;;;4.03;3.27;;;27.90;25.40;;;;;;5071778;28;20410;-55
2023/07/22 11:29:36;;;;;;;4.93;3.70;;;28.10;25.60;;;;;;5071479;28;20491;-52
2023/07/22 11:32:03;;;;;;;6.63;3.80;;;28.20;24.40;;;;;;5071729;28;20407;-52
2023/07/22 11:34:29;;;;;;;5.10;3.37;;;28.30;23.10;;;;;;5071747;28;20422;-54
2023/07/22 11:36:56;;;;;;;5.80;4.30;;;28.40;24.40;;;;;;5071772;28;20403;-54
2023/07/22 11:39:25;;;;;;;5.20;3.60;;;28.70;25.20;;;;;;5071392;28;20538;-51
2023/07/22 11:41:52;;;;;;;3.90;3.40;;;28.90;23.20;;;;;;5071722;28;20449;-52
2023/07/22 11:44:26;;;;;;;4.40;3.40;;;28.90;23.00;;;;;;5071637;28;20468;-54
2023/07/22 11:47:03;;;;;;;4.27;3.67;;;28.70;22.40;;;;;;5071800;28;20407;-54
2023/07/22 11:49:31;;;;;;;5.33;4.00;;;28.50;24.10;;;;;;5071538;28;20950;-54
2023/07/22 11:52:04;;;;;;;5.30;4.00;;;28.50;24.00;;;;;;5075404;28;20406;-51
2023/07/22 11:54:35;;;;;;;8.00;4.73;;;28.60;24.60;;;;;;5075670;28;20407;-52
2023/07/22 11:57:10;;;;;;;5.27;4.17;;;28.90;24.10;;;;;;5075474;28;20560;-53
2023/07/22 11:59:39;;;;;;;5.47;4.23;;;29.10;25.50;;;;;;5075324;28;20926;-50
2023/07/22 12:02:05;;;;;;;4.00;3.60;;;29.10;24.00;;;;;;5075376;28;20442;-53
2023/07/22 12:04:33;;;;;;;3.30;3.00;;;29.10;23.70;;;;;;5075206;28;20556;-55
2023/07/22 12:06:59;;;;;;;6.00;3.50;;;29.10;25.00;;;;;;5075177;28;20419;-52
2023/07/22 12:09:26;;;;;;;5.57;3.20;;;29.20;23.90;;;;;;5074925;28;20466;-53
2023/07/22 12:11:59;;;;;;;4.83;3.30;;;29.50;25.80;;;;;;5075029;28;20194;-54
2023/07/22 12:14:36;;;;;;;5.37;3.73;;;29.80;25.00;;;;;;5075025;28;20450;-52
2023/07/22 12:17:02;;;;;;;4.23;3.67;;;30.00;23.60;;;;;;5075000;28;20771;-55
2023/07/22 12:19:30;;;;;;;3.47;3.17;;;30.00;24.40;;;;;;5075018;28;20711;-52
2023/07/22 12:21:56;;;;;;;4.90;3.53;;;29.90;22.50;;;;;;5075000;28;20426;-52
2023/07/22 12:24:22;;;;;;;4.10;3.50;;;29.70;21.50;;;;;;5074930;28;20880;-54
2023/07/22 12:26:47;;;;;;;3.80;3.10;;;29.40;22.00;;;;;;5075183;28;20232;-52
2023/07/22 12:29:13;;;;;;;4.63;4.23;;;29.10;23.50;;;;;;5074610;28;20622;-54
2023/07/22 12:31:39;;;;;;;6.40;3.17;;;28.90;24.00;;;;;;5074698;28;20205;-55
2023/07/22 12:34:05;;;;;;;4.10;3.70;;;28.90;24.00;;;;;;5073745;28;20172;-52
2023/07/22 12:36:30;;;;;;;5.20;3.80;;;28.80;24.70;;;;;;5074642;28;20571;-52
2023/07/22 12:38:56;;;;;;;5.93;3.90;;;28.80;24.10;;;;;;5074606;28;20172;-55
2023/07/22 12:41:22;;;;;;;6.77;3.50;;;28.80;24.30;;;;;;5074398;28;20195;-52
2023/07/22 12:43:49;;;;;;;8.83;3.73;;;28.80;24.50;;;;;;5074538;28;20169;-53
2023/07/22 12:46:14;;;;;;;3.80;3.00;;;28.70;23.80;;;;;;5074748;28;20181;-54